Time;durP1;ratioP1;P1;durP2;ratioP2;P2;SDS_P1;SDS_P2;PMS_P1;PMS_P2;Temp;Humidity;BMP_temperature;BMP_pressure;BME280_temperature;BME280_humidity;BME280_pressure;Samples;Min_cycle;Max_cycle;Signal;HPM_P1;HPM_P2
2024/02/01 00:00:05;;;;;;;88.53;40.60;;;1.70;99.90;;;;;;2059412;28;20031;-76
2024/02/01 00:01:08;;;;;;;93.93;41.08;;;1.70;99.90;;;;;;2067506;28;20038;-76
2024/02/01 00:02:08;;;;;;;93.53;41.42;;;1.70;99.90;;;;;;2065592;28;20029;-77
2024/02/01 00:03:09;;;;;;;87.78;40.40;;;1.70;99.90;;;;;;2067948;28;20029;-78
2024/02/01 00:04:09;;;;;;;92.05;41.83;;;1.70;99.90;;;;;;2067153;28;20018;-78
2024/02/01 00:05:10;;;;;;;96.25;42.90;;;1.70;99.90;;;;;;2069427;28;20026;-77
2024/02/01 00:06:10;;;;;;;98.65;44.08;;;1.80;99.90;;;;;;2066844;28;20033;-76
2024/02/01 00:07:11;;;;;;;96.05;41.90;;;1.70;99.90;;;;;;2058967;28;20041;-76
2024/02/01 00:08:11;;;;;;;97.35;43.17;;;1.70;99.90;;;;;;2068221;28;20029;-76
2024/02/01 00:09:12;;;;;;;96.00;43.35;;;1.70;99.90;;;;;;2069518;28;20017;-77
2024/02/01 00:10:12;;;;;;;95.68;43.65;;;1.70;99.90;;;;;;2069652;28;20049;-76
2024/02/01 00:11:13;;;;;;;97.43;42.72;;;1.70;99.90;;;;;;2070873;28;20018;-77
2024/02/01 00:12:13;;;;;;;91.55;42.70;;;1.60;99.90;;;;;;2072410;28;20029;-76
2024/02/01 00:13:14;;;;;;;96.80;43.78;;;1.60;99.90;;;;;;2066898;28;20034;-77
2024/02/01 00:14:14;;;;;;;99.60;44.60;;;1.60;99.90;;;;;;2066551;28;20046;-77
2024/02/01 00:15:15;;;;;;;97.72;43.70;;;1.60;99.90;;;;;;2069671;28;20026;-76
2024/02/01 00:16:21;;;;;;;107.40;45.08;;;1.60;99.90;;;;;;2069827;28;20092;-76
2024/02/01 00:17:21;;;;;;;98.70;43.20;;;1.60;99.90;;;;;;2069453;28;20395;-77
2024/02/01 00:18:22;;;;;;;99.93;43.47;;;1.50;99.90;;;;;;2072789;28;20022;-76
2024/02/01 00:19:22;;;;;;;100.53;44.65;;;1.60;99.90;;;;;;2068175;28;20034;-77
2024/02/01 00:20:23;;;;;;;103.82;45.05;;;1.60;99.90;;;;;;2060827;28;20046;-77
2024/02/01 00:21:23;;;;;;;101.13;43.83;;;1.60;99.90;;;;;;2064295;28;20034;-77
2024/02/01 00:22:24;;;;;;;99.60;44.15;;;1.60;99.90;;;;;;2067613;28;20033;-76
2024/02/01 00:23:24;;;;;;;92.78;43.00;;;1.60;99.90;;;;;;2064870;28;20073;-77
2024/02/01 00:24:25;;;;;;;96.35;43.45;;;1.50;99.90;;;;;;2072322;28;20030;-76
2024/02/01 00:25:25;;;;;;;97.22;43.25;;;1.60;99.90;;;;;;2065126;28;20030;-76
2024/02/01 00:26:26;;;;;;;97.72;43.08;;;1.70;99.90;;;;;;2071823;28;20022;-77
2024/02/01 00:27:27;;;;;;;97.90;43.60;;;1.70;99.90;;;;;;2060063;28;20038;-76
2024/02/01 00:28:27;;;;;;;99.78;43.72;;;1.60;99.90;;;;;;2059166;28;20026;-77
2024/02/01 00:29:28;;;;;;;102.40;43.85;;;1.60;99.90;;;;;;2065173;28;20094;-76
2024/02/01 00:30:28;;;;;;;102.45;43.47;;;1.60;99.90;;;;;;2071830;28;20049;-73
2024/02/01 00:31:29;;;;;;;100.82;43.92;;;1.60;99.90;;;;;;2065778;28;20039;-75
2024/02/01 00:32:31;;;;;;;95.47;42.88;;;1.60;99.90;;;;;;2065116;28;20033;-76
2024/02/01 00:33:32;;;;;;;99.13;44.45;;;1.60;99.90;;;;;;2072093;28;20022;-76
2024/02/01 00:34:33;;;;;;;101.25;44.83;;;1.60;99.90;;;;;;2071618;28;20033;-77
2024/02/01 00:35:33;;;;;;;99.65;44.05;;;1.70;99.90;;;;;;2064013;28;20064;-77
2024/02/01 00:36:34;;;;;;;97.75;44.90;;;1.70;99.90;;;;;;2068429;28;20061;-77
2024/02/01 00:37:34;;;;;;;99.30;44.10;;;1.70;99.90;;;;;;2079870;28;20033;-77
2024/02/01 00:38:35;;;;;;;98.03;43.40;;;1.70;99.90;;;;;;2076198;28;20033;-77
2024/02/01 00:39:36;;;;;;;98.03;42.65;;;1.70;99.90;;;;;;2072396;28;20479;-77
2024/02/01 00:40:36;;;;;;;101.55;43.65;;;1.60;99.90;;;;;;2071899;28;20048;-78
2024/02/01 00:41:37;;;;;;;97.90;43.75;;;1.60;99.90;;;;;;2068826;28;20392;-78
2024/02/01 00:42:37;;;;;;;96.53;42.83;;;1.60;99.90;;;;;;2067581;28;20045;-78
2024/02/01 00:43:39;;;;;;;98.07;42.80;;;1.60;99.90;;;;;;2064154;28;20033;-77
2024/02/01 00:44:40;;;;;;;95.93;43.35;;;1.60;99.90;;;;;;2072022;28;20033;-75
2024/02/01 00:45:40;;;;;;;95.28;43.75;;;1.60;99.90;;;;;;2056071;28;20113;-76
2024/02/01 00:46:41;;;;;;;96.50;42.95;;;1.60;99.90;;;;;;2071025;28;20028;-77
2024/02/01 00:47:41;;;;;;;100.35;44.60;;;1.70;99.90;;;;;;2072054;28;20022;-76
2024/02/01 00:48:45;;;;;;;92.22;42.92;;;1.70;99.90;;;;;;2072116;28;20025;-77
2024/02/01 00:49:45;;;;;;;93.32;42.65;;;1.80;99.90;;;;;;2066024;28;20044;-76
2024/02/01 00:50:46;;;;;;;95.38;42.85;;;1.70;99.90;;;;;;2068826;28;20194;-77
2024/02/01 00:51:46;;;;;;;93.43;42.92;;;1.70;99.90;;;;;;2072228;28;20030;-76
2024/02/01 00:52:47;;;;;;;93.57;42.08;;;1.70;99.90;;;;;;2069163;28;20531;-77
2024/02/01 00:53:48;;;;;;;95.78;43.78;;;1.70;99.90;;;;;;2069118;28;20045;-77
2024/02/01 00:54:48;;;;;;;99.10;42.40;;;1.70;99.90;;;;;;2069112;28;20030;-76
2024/02/01 00:55:49;;;;;;;95.55;43.22;;;1.70;99.90;;;;;;2069656;28;20411;-78
2024/02/01 00:56:50;;;;;;;94.35;41.83;;;1.70;99.90;;;;;;2070580;28;20501;-77
2024/02/01 00:57:50;;;;;;;94.18;42.33;;;1.80;99.90;;;;;;2064986;28;20042;-77
2024/02/01 00:58:51;;;;;;;97.68;42.88;;;1.70;99.90;;;;;;2070568;28;20026;-77
2024/02/01 00:59:51;;;;;;;96.88;42.72;;;1.70;99.90;;;;;;2068637;28;20037;-77
2024/02/01 01:00:52;;;;;;;93.32;41.72;;;1.70;99.90;;;;;;2068527;28;20025;-77
2024/02/01 01:01:52;;;;;;;94.45;42.03;;;1.70;99.90;;;;;;2069514;28;20036;-77
2024/02/01 01:02:53;;;;;;;94.78;41.47;;;1.80;99.90;;;;;;2068058;28;20040;-76
2024/02/01 01:03:55;;;;;;;89.82;41.40;;;1.90;99.90;;;;;;2067751;28;20045;-77
2024/02/01 01:04:55;;;;;;;93.13;42.30;;;1.90;99.90;;;;;;2071416;28;20080;-78
2024/02/01 01:05:56;;;;;;;92.85;41.38;;;1.80;99.90;;;;;;2065512;28;20042;-76
2024/02/01 01:06:56;;;;;;;93.32;41.60;;;1.80;99.90;;;;;;2070835;28;20034;-76
2024/02/01 01:07:57;;;;;;;98.35;41.95;;;1.80;99.90;;;;;;2068401;28;20037;-76
2024/02/01 01:08:58;;;;;;;94.28;41.47;;;1.80;99.90;;;;;;2068440;28;20085;-76
2024/02/01 01:09:59;;;;;;;91.40;42.60;;;1.80;99.90;;;;;;2067784;28;20518;-76
2024/02/01 01:10:59;;;;;;;93.63;41.72;;;1.80;99.90;;;;;;2068887;28;20136;-76
2024/02/01 01:12:00;;;;;;;96.82;42.75;;;1.70;99.90;;;;;;2072470;28;20033;-77
2024/02/01 01:13:00;;;;;;;91.60;42.08;;;1.70;99.90;;;;;;2070915;28;20029;-78
2024/02/01 01:14:01;;;;;;;89.03;40.67;;;1.70;99.90;;;;;;2069252;28;20597;-78
2024/02/01 01:15:01;;;;;;;89.40;41.88;;;1.70;99.90;;;;;;2071796;28;20122;-77
2024/02/01 01:16:02;;;;;;;94.97;43.25;;;1.70;99.90;;;;;;2078551;28;20026;-76
2024/02/01 01:17:03;;;;;;;96.13;43.28;;;1.70;99.90;;;;;;2066160;28;20777;-76
2024/02/01 01:18:04;;;;;;;97.75;43.30;;;1.80;99.90;;;;;;2062368;28;20060;-76
2024/02/01 01:19:04;;;;;;;92.57;41.92;;;1.80;99.90;;;;;;2064092;28;20036;-77
2024/02/01 01:20:05;;;;;;;90.60;41.80;;;1.90;99.90;;;;;;2077864;28;20087;-78
2024/02/01 01:21:06;;;;;;;89.93;40.50;;;1.90;99.90;;;;;;2069351;28;20038;-77
2024/02/01 01:22:06;;;;;;;93.53;42.67;;;1.80;99.90;;;;;;2071520;28;20543;-76
2024/02/01 01:23:07;;;;;;;90.95;41.67;;;1.80;99.90;;;;;;2077952;28;20061;-77
2024/02/01 01:24:07;;;;;;;88.90;42.60;;;1.80;99.90;;;;;;2077325;28;20037;-76
2024/02/01 01:25:08;;;;;;;89.50;40.95;;;1.80;99.90;;;;;;2066077;28;20476;-77
2024/02/01 01:26:08;;;;;;;90.05;41.03;;;1.80;99.90;;;;;;2064081;28;20036;-76
2024/02/01 01:27:09;;;;;;;90.30;41.75;;;1.90;99.90;;;;;;2072164;28;20084;-76
2024/02/01 01:28:09;;;;;;;90.90;41.53;;;1.80;99.90;;;;;;2063883;28;20799;-75
2024/02/01 01:29:11;;;;;;;91.25;40.92;;;1.80;99.90;;;;;;2068051;28;20017;-76
2024/02/01 01:30:11;;;;;;;93.45;41.63;;;1.70;99.90;;;;;;2068881;28;20032;-76
2024/02/01 01:31:12;;;;;;;95.97;42.55;;;1.70;99.90;;;;;;2071856;28;20062;-76
2024/02/01 01:32:14;;;;;;;92.15;42.42;;;1.70;99.90;;;;;;2067750;28;20061;-77
2024/02/01 01:33:15;;;;;;;92.30;42.38;;;1.80;99.90;;;;;;2068333;28;20038;-76
2024/02/01 01:34:15;;;;;;;89.20;40.97;;;1.80;99.90;;;;;;2063276;28;20040;-78
2024/02/01 01:35:16;;;;;;;91.10;41.05;;;1.80;99.90;;;;;;2071672;28;20039;-77
2024/02/01 01:36:16;;;;;;;88.35;40.88;;;1.80;99.90;;;;;;2064514;28;20398;-75
2024/02/01 01:37:17;;;;;;;94.32;42.83;;;1.80;99.90;;;;;;2072741;28;20033;-77
2024/02/01 01:38:18;;;;;;;91.40;40.42;;;1.80;99.90;;;;;;2075149;28;20034;-76
2024/02/01 01:39:18;;;;;;;87.10;40.60;;;1.80;99.90;;;;;;2073399;28;20542;-76
2024/02/01 01:40:19;;;;;;;91.55;42.30;;;1.80;99.90;;;;;;2073802;28;20029;-76
2024/02/01 01:41:19;;;;;;;89.07;40.95;;;1.90;99.90;;;;;;2070638;28;20042;-77
2024/02/01 01:42:20;;;;;;;88.30;41.30;;;1.90;99.90;;;;;;2073190;28;20037;-77
2024/02/01 01:43:20;;;;;;;89.75;40.70;;;2.00;99.90;;;;;;2071056;28;20045;-77
2024/02/01 01:44:21;;;;;;;93.75;42.17;;;2.00;99.90;;;;;;2067754;28;20026;-78
2024/02/01 01:45:22;;;;;;;91.22;40.72;;;2.00;99.90;;;;;;2072167;28;20030;-76
2024/02/01 01:46:22;;;;;;;91.53;41.28;;;1.90;99.90;;;;;;2071787;28;20037;-75
2024/02/01 01:47:28;;;;;;;88.68;41.17;;;1.90;99.90;;;;;;2060720;28;20044;-75
2024/02/01 01:48:29;;;;;;;91.40;42.08;;;1.90;99.90;;;;;;2067352;28;20031;-77
2024/02/01 01:49:30;;;;;;;95.93;41.70;;;1.90;99.90;;;;;;2072242;28;20589;-75
2024/02/01 01:50:30;;;;;;;87.53;40.50;;;1.90;99.90;;;;;;2066306;28;20034;-76
2024/02/01 01:51:33;;;;;;;87.90;40.22;;;1.90;99.90;;;;;;2052681;28;20042;-78
2024/02/01 01:52:35;;;;;;;89.88;41.53;;;1.90;99.90;;;;;;2069588;28;20033;-77
2024/02/01 01:53:37;;;;;;;86.85;40.95;;;1.90;99.90;;;;;;2065088;28;20101;-77
2024/02/01 01:54:38;;;;;;;86.97;40.70;;;1.80;99.90;;;;;;2067411;28;20610;-76
2024/02/01 01:55:39;;;;;;;86.78;40.50;;;1.80;99.90;;;;;;2062872;28;20097;-77
2024/02/01 01:56:40;;;;;;;90.40;42.28;;;1.90;99.90;;;;;;2067873;28;20044;-78
2024/02/01 01:57:41;;;;;;;91.93;41.22;;;2.00;99.90;;;;;;2051325;28;20531;-74
2024/02/01 01:58:43;;;;;;;88.88;41.03;;;2.00;99.90;;;;;;2057532;28;20030;-78
2024/02/01 01:59:44;;;;;;;88.65;41.47;;;2.00;99.90;;;;;;2063614;28;20022;-77
2024/02/01 02:00:44;;;;;;;90.00;41.80;;;2.00;99.90;;;;;;2065964;28;20042;-78
2024/02/01 02:01:47;;;;;;;86.68;40.00;;;2.00;99.90;;;;;;2069602;28;20064;-78
2024/02/01 02:02:47;;;;;;;85.28;39.55;;;1.90;99.90;;;;;;2077035;28;20099;-78
2024/02/01 02:03:50;;;;;;;87.65;41.45;;;1.90;99.90;;;;;;2079512;28;20038;-77
2024/02/01 02:04:52;;;;;;;87.97;41.25;;;1.90;99.90;;;;;;2065779;28;20744;-77
2024/02/01 02:05:53;;;;;;;87.10;40.63;;;1.90;99.90;;;;;;2068289;28;20566;-77
2024/02/01 02:06:55;;;;;;;93.22;41.42;;;1.90;99.90;;;;;;2067952;28;20075;-78
2024/02/01 02:07:56;;;;;;;90.28;41.58;;;1.90;99.90;;;;;;2071120;28;20040;-78
2024/02/01 02:08:57;;;;;;;89.28;41.00;;;1.80;99.90;;;;;;2063886;28;20033;-77
2024/02/01 02:10:00;;;;;;;86.63;42.08;;;1.80;99.90;;;;;;2071016;28;20100;-77
2024/02/01 02:11:01;;;;;;;90.55;41.45;;;1.90;99.90;;;;;;2070167;28;20407;-77
2024/02/01 02:12:01;;;;;;;86.45;41.28;;;1.90;99.90;;;;;;2068022;28;20053;-77
2024/02/01 02:13:02;;;;;;;91.82;42.20;;;1.90;99.90;;;;;;2064197;28;20077;-77
2024/02/01 02:14:08;;;;;;;85.57;41.60;;;1.80;99.90;;;;;;2070714;28;20033;-76
2024/02/01 02:15:09;;;;;;;91.57;41.72;;;1.80;99.90;;;;;;2071165;28;20035;-76
2024/02/01 02:16:09;;;;;;;94.55;42.63;;;1.80;99.90;;;;;;2068946;28;20018;-76
2024/02/01 02:17:10;;;;;;;91.72;42.22;;;1.80;99.90;;;;;;2067021;28;20056;-76
2024/02/01 02:18:10;;;;;;;94.32;42.88;;;1.90;99.90;;;;;;2067927;28;20519;-77
2024/02/01 02:19:11;;;;;;;94.30;43.35;;;1.90;99.90;;;;;;2070442;28;20022;-76
2024/02/01 02:20:17;;;;;;;92.97;42.97;;;1.90;99.90;;;;;;2069468;28;20484;-76
2024/02/01 02:21:18;;;;;;;92.60;41.58;;;1.80;99.90;;;;;;2063079;28;20232;-77
2024/02/01 02:22:20;;;;;;;90.07;42.28;;;1.80;99.90;;;;;;2066987;28;20097;-76
2024/02/01 02:23:21;;;;;;;96.82;43.65;;;1.80;99.90;;;;;;2067327;28;20463;-75
2024/02/01 02:24:21;;;;;;;92.47;41.58;;;1.80;99.90;;;;;;2066977;28;20034;-77
2024/02/01 02:25:22;;;;;;;92.55;42.75;;;1.80;99.90;;;;;;2059361;28;20038;-77
2024/02/01 02:26:22;;;;;;;94.65;42.47;;;1.90;99.90;;;;;;2067766;28;20408;-77
2024/02/01 02:27:23;;;;;;;90.75;43.00;;;2.00;99.90;;;;;;2071959;28;20030;-76
2024/02/01 02:28:24;;;;;;;85.40;41.15;;;2.00;99.90;;;;;;2071154;28;20056;-77
2024/02/01 02:29:24;;;;;;;92.30;41.92;;;2.00;99.90;;;;;;2069032;28;20105;-76
2024/02/01 02:30:25;;;;;;;91.65;42.38;;;2.00;99.90;;;;;;2068327;28;20052;-76
2024/02/01 02:31:25;;;;;;;91.25;42.65;;;2.10;99.90;;;;;;2072812;28;20468;-75
2024/02/01 02:32:26;;;;;;;84.85;40.42;;;2.10;99.90;;;;;;2068228;28;20053;-76
2024/02/01 02:33:26;;;;;;;88.32;40.75;;;2.00;99.90;;;;;;2072380;28;20705;-78
2024/02/01 02:34:27;;;;;;;82.40;40.33;;;2.10;99.90;;;;;;2069169;28;20078;-76
2024/02/01 02:35:28;;;;;;;83.55;40.20;;;2.00;99.90;;;;;;2073861;28;20034;-75
2024/02/01 02:36:28;;;;;;;84.53;39.10;;;2.00;99.90;;;;;;2071252;28;20034;-78
2024/02/01 02:37:29;;;;;;;87.05;40.15;;;2.10;99.90;;;;;;2070234;28;20045;-77
2024/02/01 02:38:30;;;;;;;84.60;40.58;;;2.10;99.90;;;;;;2072739;28;20084;-77
2024/02/01 02:39:30;;;;;;;82.18;40.53;;;2.10;99.90;;;;;;2072260;28;20048;-76
2024/02/01 02:40:31;;;;;;;85.43;38.58;;;2.10;99.90;;;;;;2070539;28;20060;-70
2024/02/01 02:41:31;;;;;;;86.60;40.10;;;2.10;99.90;;;;;;2069600;28;20049;-70
2024/02/01 02:42:32;;;;;;;79.07;38.40;;;2.10;99.90;;;;;;2073015;28;20594;-70
2024/02/01 02:43:32;;;;;;;79.00;38.15;;;2.10;99.90;;;;;;2064863;28;20566;-70
2024/02/01 02:44:33;;;;;;;77.57;37.30;;;2.10;99.90;;;;;;2066985;28;20041;-70
2024/02/01 02:45:33;;;;;;;84.20;39.45;;;2.10;99.90;;;;;;2069210;28;20104;-72
2024/02/01 02:46:34;;;;;;;86.00;39.90;;;2.10;99.90;;;;;;2072538;28;20025;-71
2024/02/01 02:47:34;;;;;;;82.15;39.78;;;2.10;99.90;;;;;;2072200;28;20041;-71
2024/02/01 02:48:37;;;;;;;85.97;40.28;;;2.10;99.90;;;;;;2065696;28;20381;-71
2024/02/01 02:49:38;;;;;;;85.05;40.05;;;2.10;99.90;;;;;;2072635;28;20034;-71
2024/02/01 02:50:38;;;;;;;85.40;40.70;;;2.10;99.90;;;;;;2069129;28;20037;-70
2024/02/01 02:51:39;;;;;;;82.00;40.58;;;2.10;99.90;;;;;;2074318;28;20056;-70
2024/02/01 02:52:42;;;;;;;86.90;41.30;;;2.10;99.90;;;;;;2072391;28;20574;-70
2024/02/01 02:53:43;;;;;;;86.25;41.10;;;2.20;99.90;;;;;;2065148;28;20495;-70
2024/02/01 02:54:43;;;;;;;82.15;40.47;;;2.20;99.90;;;;;;2064350;28;20022;-70
2024/02/01 02:55:44;;;;;;;92.13;45.28;;;2.20;99.90;;;;;;2060339;28;20061;-71
2024/02/01 02:56:44;;;;;;;96.88;49.42;;;2.20;99.90;;;;;;2068360;28;20026;-70
2024/02/01 02:57:45;;;;;;;123.20;62.28;;;2.20;99.90;;;;;;2069334;28;20030;-71
2024/02/01 02:58:45;;;;;;;115.20;58.28;;;2.20;99.90;;;;;;2068774;28;20068;-70
2024/02/01 02:59:46;;;;;;;112.60;58.35;;;2.20;99.90;;;;;;2068560;28;20045;-70
2024/02/01 03:00:46;;;;;;;116.88;57.38;;;2.20;99.90;;;;;;2063808;28;20089;-71
2024/02/01 03:01:47;;;;;;;100.72;53.78;;;2.20;99.90;;;;;;2072320;28;20435;-69
2024/02/01 03:02:48;;;;;;;83.32;40.70;;;2.30;99.90;;;;;;2073568;28;20073;-69
2024/02/01 03:03:48;;;;;;;85.30;41.75;;;2.40;99.90;;;;;;2065971;28;20072;-70
2024/02/01 03:04:49;;;;;;;94.38;46.35;;;2.40;99.90;;;;;;2080462;28;20025;-71
2024/02/01 03:05:50;;;;;;;120.25;62.53;;;2.40;99.90;;;;;;2077203;28;20111;-71
2024/02/01 03:06:51;;;;;;;115.13;58.53;;;2.40;99.90;;;;;;2071236;28;20030;-71
2024/02/01 03:07:51;;;;;;;110.03;58.13;;;2.40;99.90;;;;;;2060156;28;20034;-71
2024/02/01 03:08:53;;;;;;;105.10;55.47;;;2.30;99.90;;;;;;2068360;28;20499;-71
2024/02/01 03:09:53;;;;;;;99.93;52.10;;;2.30;99.90;;;;;;2069081;28;20419;-69
2024/02/01 03:10:54;;;;;;;93.93;49.13;;;2.40;99.90;;;;;;2069561;28;20058;-69
2024/02/01 03:11:54;;;;;;;94.30;47.95;;;2.40;99.90;;;;;;2071595;28;20042;-69
2024/02/01 03:12:55;;;;;;;97.97;47.88;;;2.40;99.90;;;;;;2067244;28;20038;-70
2024/02/01 03:13:55;;;;;;;83.50;42.83;;;2.40;99.90;;;;;;2068290;28;20032;-69
2024/02/01 03:14:56;;;;;;;80.43;42.00;;;2.50;99.90;;;;;;2068313;28;20041;-69
2024/02/01 03:15:56;;;;;;;79.38;40.97;;;2.50;99.90;;;;;;2076194;28;20491;-69
2024/02/01 03:16:57;;;;;;;76.35;38.20;;;2.50;99.90;;;;;;2065191;28;20427;-70
2024/02/01 03:17:58;;;;;;;74.13;37.67;;;2.50;99.90;;;;;;2069518;28;20057;-70
2024/02/01 03:18:58;;;;;;;76.35;38.95;;;2.60;99.90;;;;;;2065633;28;20032;-70
2024/02/01 03:19:59;;;;;;;71.78;37.58;;;2.70;99.90;;;;;;2067168;28;20026;-69
2024/02/01 03:20:59;;;;;;;73.78;36.08;;;2.70;99.90;;;;;;2072877;28;20030;-69
2024/02/01 03:22:00;;;;;;;69.88;35.92;;;2.70;99.90;;;;;;2069533;28;20413;-70
2024/02/01 03:23:01;;;;;;;72.05;36.38;;;2.70;99.90;;;;;;2068250;28;20054;-69
2024/02/01 03:24:02;;;;;;;70.13;35.10;;;2.70;99.90;;;;;;2072205;28;20505;-70
2024/02/01 03:25:03;;;;;;;72.18;35.47;;;2.70;99.90;;;;;;2070832;28;20114;-70
2024/02/01 03:26:04;;;;;;;71.78;35.83;;;2.80;99.90;;;;;;2070137;28;20030;-70
2024/02/01 03:27:11;;;;;;;64.18;32.33;;;2.80;99.90;;;;;;2063693;28;20088;-70
2024/02/01 03:28:13;;;;;;;66.68;32.13;;;2.90;99.90;;;;;;2064061;28;20022;-70
2024/02/01 03:29:16;;;;;;;68.68;33.45;;;2.90;99.90;;;;;;2071184;28;20515;-70
2024/02/01 03:30:17;;;;;;;60.65;31.33;;;2.90;99.90;;;;;;2069629;28;20217;-70
2024/02/01 03:31:18;;;;;;;60.17;30.40;;;3.00;99.90;;;;;;2065179;28;20034;-70
2024/02/01 03:32:19;;;;;;;54.55;27.85;;;3.10;99.90;;;;;;2066121;28;20122;-70
2024/02/01 03:33:20;;;;;;;57.25;29.83;;;3.20;99.90;;;;;;2067706;28;20185;-70
2024/02/01 03:34:20;;;;;;;55.42;28.55;;;3.20;99.90;;;;;;2064743;28;20077;-70
2024/02/01 03:35:21;;;;;;;52.08;26.70;;;3.20;99.90;;;;;;2072084;28;20879;-70
2024/02/01 03:36:23;;;;;;;52.10;27.05;;;3.30;99.90;;;;;;2076385;28;20430;-70
2024/02/01 03:37:24;;;;;;;50.67;27.00;;;3.30;99.90;;;;;;2076247;28;20113;-70
2024/02/01 03:38:25;;;;;;;47.13;25.48;;;3.30;99.90;;;;;;2068007;28;20042;-71
2024/02/01 03:39:26;;;;;;;51.13;26.30;;;3.30;99.90;;;;;;2082740;28;20045;-71
2024/02/01 03:40:27;;;;;;;49.72;26.40;;;3.40;99.90;;;;;;2072100;28;20025;-77
2024/02/01 03:41:28;;;;;;;53.13;28.08;;;3.40;99.90;;;;;;2068915;28;20127;-78
2024/02/01 03:42:28;;;;;;;53.90;27.20;;;3.40;99.90;;;;;;2071560;28;20105;-78
2024/02/01 03:43:29;;;;;;;52.05;26.98;;;3.40;99.90;;;;;;2072394;28;20005;-77
2024/02/01 03:44:30;;;;;;;49.88;26.10;;;3.50;99.90;;;;;;2069931;28;20084;-78
2024/02/01 03:45:30;;;;;;;48.38;25.80;;;3.50;99.90;;;;;;2071416;28;20065;-77
2024/02/01 03:46:31;;;;;;;49.85;26.20;;;3.50;99.90;;;;;;2064279;28;20014;-77
2024/02/01 03:47:32;;;;;;;38.90;22.20;;;3.60;99.90;;;;;;2072195;28;20034;-77
2024/02/01 03:48:32;;;;;;;47.55;25.15;;;3.50;99.90;;;;;;2068690;28;20029;-79
2024/02/01 03:49:33;;;;;;;52.65;25.77;;;3.60;99.90;;;;;;2068999;28;20137;-77
2024/02/01 03:50:38;;;;;;;44.03;24.35;;;3.60;99.90;;;;;;2071617;28;20026;-77
2024/02/01 03:51:38;;;;;;;45.13;24.35;;;3.60;99.90;;;;;;2068803;28;20026;-77
2024/02/01 03:52:43;;;;;;;47.42;24.83;;;3.70;99.90;;;;;;2068902;28;20026;-76
2024/02/01 03:53:44;;;;;;;33.78;17.92;;;3.70;99.90;;;;;;2076493;28;20395;-77
2024/02/01 03:54:44;;;;;;;25.35;14.68;;;3.70;99.90;;;;;;2077489;28;20037;-77
2024/02/01 03:55:51;;;;;;;13.70;8.70;;;3.90;99.90;;;;;;2072768;28;20048;-77
2024/02/01 03:56:54;;;;;;;11.88;8.40;;;4.00;99.90;;;;;;2071539;28;20053;-76
2024/02/01 03:57:59;;;;;;;10.30;8.30;;;4.30;99.90;;;;;;2045089;28;20027;-77
2024/02/01 03:59:01;;;;;;;11.57;7.90;;;4.50;99.90;;;;;;2060635;28;20049;-77
2024/02/01 04:00:03;;;;;;;9.23;7.28;;;4.70;99.90;;;;;;2068228;28;20061;-77
2024/02/01 04:01:09;;;;;;;8.48;7.03;;;4.90;99.90;;;;;;2067225;28;20076;-78
2024/02/01 04:02:14;;;;;;;10.80;7.38;;;5.00;99.90;;;;;;2065712;28;20080;-76
2024/02/01 04:03:15;;;;;;;16.77;11.45;;;5.10;99.90;;;;;;2071175;28;20029;-76
2024/02/01 04:04:17;;;;;;;8.80;6.80;;;5.10;99.90;;;;;;2078577;28;20038;-77
2024/02/01 04:05:18;;;;;;;9.90;6.63;;;5.30;99.90;;;;;;2069655;28;20029;-77
2024/02/01 04:06:19;;;;;;;11.32;7.43;;;5.30;99.90;;;;;;2072603;28;20029;-75
2024/02/01 04:07:20;;;;;;;10.80;7.53;;;5.30;99.90;;;;;;2070051;28;20582;-76
2024/02/01 04:08:21;;;;;;;8.68;6.85;;;5.40;99.90;;;;;;2068282;28;20026;-76
2024/02/01 04:09:24;;;;;;;9.52;6.75;;;5.50;99.90;;;;;;2068811;28;20403;-76
2024/02/01 04:10:24;;;;;;;10.35;7.43;;;5.50;99.90;;;;;;2072837;28;20038;-77
2024/02/01 04:11:29;;;;;;;9.10;7.00;;;5.50;99.90;;;;;;2067435;28;20117;-77
2024/02/01 04:12:31;;;;;;;10.02;7.18;;;5.50;99.90;;;;;;2065431;28;20072;-73
2024/02/01 04:13:32;;;;;;;8.32;6.80;;;5.60;99.90;;;;;;2068327;28;20432;-74
2024/02/01 04:14:32;;;;;;;9.05;6.93;;;5.70;99.90;;;;;;2068493;28;20112;-74
2024/02/01 04:15:36;;;;;;;10.60;6.97;;;5.70;99.90;;;;;;2060838;28;20033;-74
2024/02/01 04:16:37;;;;;;;10.05;7.35;;;5.70;99.90;;;;;;2071534;28;20049;-75
2024/02/01 04:17:37;;;;;;;9.52;6.72;;;5.70;99.90;;;;;;2069283;28;20399;-75
2024/02/01 04:18:38;;;;;;;11.93;7.30;;;5.70;99.90;;;;;;2069096;28;20391;-75
2024/02/01 04:19:38;;;;;;;9.82;7.32;;;5.70;99.90;;;;;;2072074;28;20030;-76
2024/02/01 04:20:41;;;;;;;10.38;7.13;;;5.70;99.90;;;;;;2062803;28;20023;-75
2024/02/01 04:21:46;;;;;;;10.75;7.03;;;5.70;99.90;;;;;;2069335;28;20034;-75
2024/02/01 04:22:50;;;;;;;9.55;7.10;;;5.70;99.90;;;;;;2068742;28;20030;-75
2024/02/01 04:23:51;;;;;;;10.93;7.28;;;5.70;99.90;;;;;;2068760;28;20033;-74
2024/02/01 04:24:51;;;;;;;8.73;6.82;;;5.70;99.90;;;;;;2071826;28;20018;-75
2024/02/01 04:25:52;;;;;;;9.43;6.88;;;5.70;99.90;;;;;;2070401;28;20029;-76
2024/02/01 04:26:52;;;;;;;11.63;6.90;;;5.70;99.90;;;;;;2068598;28;20025;-75
2024/02/01 04:27:54;;;;;;;13.73;6.82;;;5.60;99.90;;;;;;2071124;28;20025;-75
2024/02/01 04:28:54;;;;;;;12.40;7.63;;;5.60;99.90;;;;;;2069468;28;20512;-76
2024/02/01 04:29:55;;;;;;;10.30;7.45;;;5.70;99.90;;;;;;2072051;28;20041;-75
2024/02/01 04:30:56;;;;;;;9.15;7.03;;;5.60;99.90;;;;;;2081414;28;20437;-74
2024/02/01 04:31:56;;;;;;;11.25;7.05;;;5.60;99.90;;;;;;2077606;28;20060;-75
2024/02/01 04:32:57;;;;;;;11.32;7.45;;;5.60;99.90;;;;;;2070560;28;20049;-76
2024/02/01 04:33:57;;;;;;;9.38;6.93;;;5.60;99.90;;;;;;2071211;28;20062;-74
2024/02/01 04:34:58;;;;;;;9.80;7.25;;;5.60;99.90;;;;;;2071485;28;20027;-76
2024/02/01 04:35:59;;;;;;;13.68;6.70;;;5.60;99.90;;;;;;2068979;28;20045;-75
2024/02/01 04:36:59;;;;;;;11.50;6.75;;;5.60;99.90;;;;;;2071294;28;20030;-75
2024/02/01 04:38:00;;;;;;;10.93;6.22;;;5.70;99.90;;;;;;2078033;28;20033;-74
2024/02/01 04:39:03;;;;;;;12.20;6.65;;;5.70;99.90;;;;;;2076012;28;20126;-75
2024/02/01 04:40:05;;;;;;;8.80;6.90;;;5.70;99.90;;;;;;2068424;28;20049;-74
2024/02/01 04:41:06;;;;;;;12.43;6.70;;;5.70;99.90;;;;;;2072012;28;20041;-75
2024/02/01 04:42:16;;;;;;;10.60;6.70;;;5.60;99.90;;;;;;2071560;28;20022;-74
2024/02/01 04:43:19;;;;;;;10.02;6.78;;;5.60;99.90;;;;;;2072152;28;20109;-75
2024/02/01 04:44:20;;;;;;;11.63;6.50;;;5.60;99.90;;;;;;2072166;28;20039;-76
2024/02/01 04:45:21;;;;;;;9.05;6.47;;;5.60;99.90;;;;;;2068245;28;20030;-76
2024/02/01 04:46:24;;;;;;;11.40;7.43;;;5.60;99.90;;;;;;2070770;28;20030;-76
2024/02/01 04:47:27;;;;;;;11.32;7.00;;;5.60;99.90;;;;;;2071745;28;20041;-76
2024/02/01 04:48:28;;;;;;;11.85;7.05;;;5.60;99.90;;;;;;2069785;28;20495;-75
2024/02/01 04:49:29;;;;;;;12.35;6.85;;;5.60;99.90;;;;;;2069653;28;20018;-76
2024/02/01 04:50:29;;;;;;;10.98;6.82;;;5.60;99.90;;;;;;2071645;28;20033;-75
2024/02/01 04:51:30;;;;;;;10.75;7.00;;;5.60;99.90;;;;;;2078032;28;20088;-75
2024/02/01 04:52:31;;;;;;;11.25;7.20;;;5.60;99.90;;;;;;2069413;28;20418;-76
2024/02/01 04:53:32;;;;;;;11.07;7.22;;;5.60;99.90;;;;;;2071157;28;20041;-75
2024/02/01 04:54:34;;;;;;;11.50;7.32;;;5.60;99.90;;;;;;2070827;28;20057;-76
2024/02/01 04:55:35;;;;;;;15.20;7.55;;;5.60;99.90;;;;;;2069526;28;20026;-76
2024/02/01 04:56:38;;;;;;;12.88;7.10;;;5.60;99.90;;;;;;2072506;28;20042;-77
2024/02/01 04:57:40;;;;;;;12.57;6.97;;;5.60;99.90;;;;;;2064317;28;20445;-77
2024/02/01 04:58:41;;;;;;;10.07;7.38;;;5.50;99.90;;;;;;2064992;28;20022;-75
2024/02/01 04:59:45;;;;;;;10.77;6.82;;;5.50;99.90;;;;;;2064203;28;20068;-74
2024/02/01 05:00:47;;;;;;;11.27;6.82;;;5.50;99.90;;;;;;2071380;28;20033;-76
2024/02/01 05:01:47;;;;;;;10.50;6.78;;;5.60;99.90;;;;;;2070193;28;20048;-75
2024/02/01 05:02:48;;;;;;;12.07;6.47;;;5.60;99.90;;;;;;2072396;28;20025;-75
2024/02/01 05:03:50;;;;;;;12.25;6.70;;;5.60;99.90;;;;;;2068371;28;20049;-74
2024/02/01 05:04:51;;;;;;;10.15;6.75;;;5.60;99.90;;;;;;2067799;28;20081;-73
2024/02/01 05:05:51;;;;;;;11.23;6.70;;;5.60;99.90;;;;;;2064317;28;21267;-75
2024/02/01 05:06:52;;;;;;;14.32;8.70;;;5.60;99.90;;;;;;2071427;28;20064;-75
2024/02/01 05:07:52;;;;;;;10.93;6.82;;;5.60;99.90;;;;;;2065568;28;20026;-75
2024/02/01 05:08:53;;;;;;;10.23;6.40;;;5.60;99.90;;;;;;2079356;28;20029;-76
2024/02/01 05:09:55;;;;;;;10.43;6.85;;;5.60;99.90;;;;;;2079656;28;20059;-74
2024/02/01 05:10:56;;;;;;;12.63;6.40;;;5.60;99.90;;;;;;2069276;28;20550;-74
2024/02/01 05:11:57;;;;;;;10.13;6.80;;;5.60;99.90;;;;;;2078604;28;20029;-76
2024/02/01 05:12:59;;;;;;;10.77;6.78;;;5.60;99.90;;;;;;2063158;28;20452;-76
2024/02/01 05:14:00;;;;;;;10.50;6.63;;;5.60;99.90;;;;;;2052991;28;20058;-76